Latest Weather Observations for Ocean Reef

IDW60801

Issued at 12:13 pm WST Monday 30 March 2020 (issued every 10 minutes, with the page automatically refreshed every 10 minutes)

About weather observations | Map of weather stations | Latest weather observations for WA | Other Formats
Station Details ID: 009214 Name: OCEAN REEF Lat: -31.76 Lon: 115.73 Height: 10.0 m
Data from the previous 72 hours. | See also: Recent months at Ocean Reef
Date/Time
WST
Temp
°C
App
Temp
°C
Dew
Point
°C
Rel
Hum
%
Delta-T
°C
Wind Press
QNH
hPa
Press
MSL
hPa
Rain since
9am
mm
Dir  Spd
km/h
Gust
km/h
Spd
kts
Gust
kts
30/12:00pm - - - - - SE 15 24 8 13 - - -
30/11:30am - - - - - SE 13 20 7 11 - - -
30/11:00am - - - - - ESE 13 17 7 9 - - -
30/10:30am - - - - - E 17 24 9 13 - - -
30/10:00am - - - - - E 20 32 11 17 - - -
30/09:30am - - - - - E 20 28 11 15 - - -
30/09:00am - - - - - E 17 26 9 14 - - -
30/08:30am - - - - - E 15 22 8 12 - - -
30/08:00am - - - - - E 13 19 7 10 - - -
30/07:30am - - - - - ENE 17 22 9 12 - - -
30/07:00am - - - - - E 17 22 9 12 - - -
30/06:30am - - - - - ENE 15 19 8 10 - - -
30/06:00am - - - - - ENE 17 20 9 11 - - -
30/05:30am - - - - - ENE 15 19 8 10 - - -
30/05:00am - - - - - E 17 20 9 11 - - -
30/04:30am - - - - - E 15 17 8 9 - - -
30/04:00am - - - - - E 15 19 8 10 - - -
30/03:30am - - - - - E 15 17 8 9 - - -
30/03:00am - - - - - ESE 15 22 8 12 - - -
30/02:30am - - - - - ESE 17 22 9 12 - - -
30/02:00am - - - - - ESE 17 20 9 11 - - -
30/01:30am - - - - - SE 17 19 9 10 - - -
30/01:00am - - - - - SE 17 22 9 12 - - -
30/12:30am - - - - - ESE 15 19 8 10 - - -
30/12:00am - - - - - ESE 15 19 8 10 - - -
 
Date/Time
WST
Temp
°C
App
Temp
°C
Dew
Point
°C
Rel
Hum
%
Delta-T
°C
Wind Press
QNH
hPa
Press
MSL
hPa
Rain since
9am
mm
Dir  Spd
km/h
Gust
km/h
Spd
kts
Gust
kts
29/11:30pm - - - - - ESE 15 20 8 11 - - -
29/11:00pm - - - - - E 13 17 7 9 - - -
29/10:30pm - - - - - ESE 15 19 8 10 - - -
29/10:00pm - - - - - ESE 15 19 8 10 - - -
29/09:30pm - - - - - ESE 11 17 6 9 - - -
29/09:00pm - - - - - S 20 28 11 15 - - -
29/08:30pm - - - - - S 19 26 10 14 - - -
29/08:00pm - - - - - S 20 28 11 15 - - -
29/07:30pm - - - - - S 28 33 15 18 - - -
29/07:00pm - - - - - S 26 33 14 18 - - -
29/06:30pm - - - - - SSW 24 30 13 16 - - -
29/06:00pm - - - - - SSW 24 32 13 17 - - -
29/05:30pm - - - - - SSW 22 30 12 16 - - -
29/05:00pm - - - - - SSW 24 30 13 16 - - -
29/04:30pm - - - - - SSW 28 32 15 17 - - -
29/04:00pm - - - - - SSW 26 32 14 17 - - -
29/03:30pm - - - - - SSW 24 30 13 16 - - -
29/03:00pm - - - - - SSW 24 32 13 17 - - -
29/02:30pm - - - - - SSW 20 26 11 14 - - -
29/02:00pm - - - - - SSW 20 26 11 14 - - -
29/01:30pm - - - - - SSW 15 20 8 11 - - -
29/01:00pm - - - - - SSW 17 24 9 13 - - -
29/12:30pm - - - - - SW 11 15 6 8 - - -
29/12:00pm - - - - - SW 9 11 5 6 - - -
29/11:30am - - - - - S 6 11 3 6 - - -
29/11:00am - - - - - SE 9 15 5 8 - - -
29/10:30am - - - - - ESE 11 15 6 8 - - -
29/10:00am - - - - - ENE 11 17 6 9 - - -
29/09:30am - - - - - ENE 13 19 7 10 - - -
29/09:00am - - - - - ENE 13 19 7 10 - - -
29/08:30am - - - - - ENE 13 17 7 9 - - -
29/08:00am - - - - - NE 15 20 8 11 - - -
29/07:30am - - - - - NE 13 15 7 8 - - -
29/07:00am - - - - - ENE 15 19 8 10 - - -
29/06:30am - - - - - ENE 13 19 7 10 - - -
29/06:00am - - - - - ENE 13 15 7 8 - - -
29/05:30am - - - - - ENE 15 17 8 9 - - -
29/05:00am - - - - - E 13 17 7 9 - - -
29/04:30am - - - - - ESE 11 15 6 8 - - -
29/04:00am - - - - - ESE 13 17 7 9 - - -
29/03:30am - - - - - ESE 13 17 7 9 - - -
29/03:00am - - - - - SE 13 19 7 10 - - -
29/02:30am - - - - - ESE 13 19 7 10 - - -
29/02:00am - - - - - SE 13 19 7 10 - - -
29/01:30am - - - - - ESE 13 19 7 10 - - -
29/01:00am - - - - - SE 15 20 8 11 - - -
29/12:30am - - - - - SSW 22 28 12 15 - - -
29/12:00am - - - - - SSW 26 35 14 19 - - -
 
Date/Time
WST
Temp
°C
App
Temp
°C
Dew
Point
°C
Rel
Hum
%
Delta-T
°C
Wind Press
QNH
hPa
Press
MSL
hPa
Rain since
9am
mm
Dir  Spd
km/h
Gust
km/h
Spd
kts
Gust
kts
28/11:30pm - - - - - SSW 28 35 15 19 - - -
28/11:00pm - - - - - SSW 26 32 14 17 - - -
28/10:30pm - - - - - SSW 28 33 15 18 - - -
28/10:00pm - - - - - SSW 26 32 14 17 - - -
28/09:30pm - - - - - SSW 28 33 15 18 - - -
28/09:00pm - - - - - SSW 26 32 14 17 - - -
28/08:30pm - - - - - SSW 28 39 15 21 - - -
28/08:00pm - - - - - SSW 28 35 15 19 - - -
28/07:30pm - - - - - SSW 26 35 14 19 - - -
28/07:00pm - - - - - SSW 32 37 17 20 - - -
28/06:30pm - - - - - SSW 32 37 17 20 - - -
28/06:00pm - - - - - SSW 32 39 17 21 - - -
28/05:30pm - - - - - SSW 28 35 15 19 - - -
28/05:00pm - - - - - SSW 28 35 15 19 - - -
28/04:30pm - - - - - SSW 28 35 15 19 - - -
28/04:00pm - - - - - SSW 30 37 16 20 - - -
28/03:30pm - - - - - SSW 28 33 15 18 - - -
28/03:00pm - - - - - SSW 28 33 15 18 - - -
28/02:30pm - - - - - SSW 28 33 15 18 - - -
28/02:00pm - - - - - SSW 26 33 14 18 - - -
28/01:30pm - - - - - SSW 24 32 13 17 - - -
28/01:00pm - - - - - SW 26 33 14 18 - - -
28/12:30pm - - - - - SW 28 37 15 20 - - -
28/12:00pm - - - - - SW 22 28 12 15 - - -
28/11:30am - - - - - SW 28 33 15 18 - - -
28/11:00am - - - - - SW 28 33 15 18 - - -
28/10:30am - - - - - SW 28 33 15 18 - - -
28/10:00am - - - - - SW 28 35 15 19 - - -
28/09:30am - - - - - SW 30 35 16 19 - - -
28/09:00am - - - - - SSW 32 39 17 21 - - -
28/08:30am - - - - - SSW 32 37 17 20 - - -
28/08:00am - - - - - SSW 30 35 16 19 - - -
28/07:30am - - - - - SSW 33 39 18 21 - - -
28/07:00am - - - - - SW 35 48 19 26 - - -
28/06:30am - - - - - SSW 37 46 20 25 - - -
28/06:00am - - - - - SW 39 46 21 25 - - -
28/05:30am - - - - - SW 37 43 20 23 - - -
28/05:00am - - - - - SW 37 43 20 23 - - -
28/04:30am - - - - - SW 33 44 18 24 - - -
28/04:00am - - - - - SW 39 48 21 26 - - -
28/03:30am - - - - - SW 39 48 21 26 - - -
28/03:00am - - - - - SW 43 50 23 27 - - -
28/02:30am - - - - - SW 37 48 20 26 - - -
28/02:00am - - - - - SW 35 44 19 24 - - -
28/01:49am - - - - - SW 33 46 18 25 - - -
28/01:30am - - - - - WSW 22 28 12 15 - - -
28/01:00am - - - - - WSW 37 44 20 24 - - -
28/12:49am - - - - - WSW 33 52 18 28 - - -
28/12:30am - - - - - W 33 46 18 25 - - -
28/12:00am - - - - - NW 35 39 19 21 - - -
 
Date/Time
WST
Temp
°C
App
Temp
°C
Dew
Point
°C
Rel
Hum
%
Delta-T
°C
Wind Press
QNH
hPa
Press
MSL
hPa
Rain since
9am
mm
Dir  Spd
km/h
Gust
km/h
Spd
kts
Gust
kts
27/11:30pm - - - - - NW 33 39 18 21 - - -
27/11:00pm - - - - - WNW 32 37 17 20 - - -
27/10:30pm - - - - - WNW 28 35 15 19 - - -
27/10:00pm - - - - - WNW 30 33 16 18 - - -
27/09:30pm - - - - - WNW 30 35 16 19 - - -
27/09:00pm - - - - - W 30 35 16 19 - - -
27/08:30pm - - - - - W 32 35 17 19 - - -
27/08:00pm - - - - - W 30 35 16 19 - - -
27/07:30pm - - - - - W 33 39 18 21 - - -
27/07:00pm - - - - - W 32 39 17 21 - - -
27/06:30pm - - - - - WNW 32 39 17 21 - - -
27/06:00pm - - - - - WNW 28 35 15 19 - - -
27/05:30pm - - - - - NW 30 33 16 18 - - -
27/05:00pm - - - - - NW 26 30 14 16 - - -
27/04:30pm - - - - - NW 28 32 15 17 - - -
27/04:00pm - - - - - WNW 26 30 14 16 - - -
27/03:30pm - - - - - WNW 30 33 16 18 - - -
27/03:00pm - - - - - NW 30 33 16 18 - - -
27/02:30pm - - - - - NW 28 33 15 18 - - -
27/02:00pm - - - - - NW 22 26 12 14 - - -
27/01:30pm - - - - - NW 26 30 14 16 - - -
27/01:00pm - - - - - NW 22 26 12 14 - - -
27/12:30pm - - - - - NNW 24 28 13 15 - - -

Other formats

Comma delimited format used in spreadsheet applications
http://www.bom.gov.au/fwo/IDW60801/IDW60801.94607.axf

JavaScript Object Notation format (JSON) in row-major order
http://www.bom.gov.au/fwo/IDW60801/IDW60801.94607.json

Data quality

Most of these data are generated automatically and are frequently updated. Quality checks on data are not normally performed. It is possible for incorrect values to appear. Refer to information at About Latest Weather Observations and please check the disclaimer before using these data.